PWSweather.com
Personal Weather Stations
Station Observations
20WH18
ZaandamNL 1506EL

ZaandamNL 1506EL

Lat: 52.4408333, Lon: 4.8216667

Elevation: 9

Station Type: Vantage Pro2 Plus

http://www.weerhaas.nl/

Latest ConditionsUpdated 5:05:06 PM GMT+01:01 Saturday, Nov 17, 2018
Currently Today's Max Today's Min Today's Average
Temperature 43.2°F6.2°C 44.8°F7.1°C 35.4°F1.9°C 39.4°F4.1°C
Dew Point 38.7°F3.7°C 39.6°F4.2°C 33.9°F1.1°C 37.0°F2.8°C
Winds 3.0 mph NE4.8 kmh NE 4.0 mph -6.4 kmh - - 1.2 mph 1.9 kmh
Wind Gusts 7.0 mph11.3 kmh 11.0 mph17.7 kmh - -
Humidity 84% 95% 81% 91%
Pressure 30.45 in1031.2 mb 30.47 in1031.8 mb 30.39 in1029.1 mb -
Precipitation - 0.01 in0.3 mm - -
Hour Temp Dew Point Humidity Winds Wind Gusts Pressure Precip Precip Rate Daily Precip Total
05:05 PM 43.2°F6.2°C 38.7°F3.7°C 84% 3.0 mph NE4.8 kmh NE 7.0 mph11.3 kmh 30.45 in1031.2 mb 0.00 in0.0 mm 0.00 in0.0 mm 0.01 in0.3 mm
05:00 PM 43.3°F6.3°C 38.8°F3.8°C 84% 3.0 mph NE4.8 kmh NE 7.0 mph11.3 kmh 30.45 in1031.2 mb 0.00 in0.0 mm 0.00 in0.0 mm 0.01 in0.3 mm
04:55 PM 43.5°F6.4°C 39.0°F3.9°C 84% 3.0 mph NE4.8 kmh NE 8.0 mph12.9 kmh 30.45 in1031.2 mb 0.00 in0.0 mm 0.00 in0.0 mm 0.01 in0.3 mm
04:50 PM 43.5°F6.4°C 39.0°F3.9°C 84% 2.0 mph NE3.2 kmh NE 8.0 mph12.9 kmh 30.45 in1031.2 mb 0.00 in0.0 mm 0.00 in0.0 mm 0.01 in0.3 mm
04:45 PM 43.7°F6.5°C 39.2°F4.0°C 84% 2.0 mph NE3.2 kmh NE 7.0 mph11.3 kmh 30.45 in1031.2 mb 0.00 in0.0 mm 0.00 in0.0 mm 0.01 in0.3 mm
04:40 PM 43.9°F6.6°C 39.1°F3.9°C 83% 2.0 mph NE3.2 kmh NE 7.0 mph11.3 kmh 30.45 in1031.2 mb 0.00 in0.0 mm 0.00 in0.0 mm 0.01 in0.3 mm
04:35 PM 43.9°F6.6°C 39.1°F3.9°C 83% 3.0 mph NE4.8 kmh NE 7.0 mph11.3 kmh 30.45 in1031.2 mb 0.00 in0.0 mm 0.00 in0.0 mm 0.01 in0.3 mm
04:30 PM 43.9°F6.6°C 39.1°F3.9°C 83% 2.0 mph NE3.2 kmh NE 7.0 mph11.3 kmh 30.45 in1031.2 mb 0.00 in0.0 mm 0.00 in0.0 mm 0.01 in0.3 mm
04:25 PM 44.1°F6.7°C 39.2°F4.0°C 83% 3.0 mph NE4.8 kmh NE 9.0 mph14.5 kmh 30.45 in1031.2 mb 0.00 in0.0 mm 0.00 in0.0 mm 0.01 in0.3 mm
04:20 PM 44.1°F6.7°C 39.2°F4.0°C 83% 4.0 mph NE6.4 kmh NE 9.0 mph14.5 kmh 30.45 in1031.2 mb 0.00 in0.0 mm 0.00 in0.0 mm 0.01 in0.3 mm
04:15 PM 44.1°F6.7°C 39.2°F4.0°C 83% 4.0 mph ENE6.4 kmh ENE 10.0 mph16.1 kmh 30.45 in1031.2 mb 0.00 in0.0 mm 0.00 in0.0 mm 0.01 in0.3 mm
04:10 PM 44.2°F6.8°C 39.4°F4.1°C 83% 3.0 mph NE4.8 kmh NE 10.0 mph16.1 kmh 30.45 in1031.2 mb 0.00 in0.0 mm 0.00 in0.0 mm 0.01 in0.3 mm
04:05 PM 44.2°F6.8°C 39.4°F4.1°C 83% 3.0 mph ENE4.8 kmh ENE 10.0 mph16.1 kmh 30.45 in1031.2 mb 0.00 in0.0 mm 0.00 in0.0 mm 0.01 in0.3 mm
04:00 PM 44.2°F6.8°C 39.4°F4.1°C 83% 2.0 mph NE3.2 kmh NE 8.0 mph12.9 kmh 30.45 in1031.2 mb 0.00 in0.0 mm 0.00 in0.0 mm 0.01 in0.3 mm
03:55 PM 44.2°F6.8°C 39.4°F4.1°C 83% 2.0 mph NE3.2 kmh NE 8.0 mph12.9 kmh 30.45 in1031.2 mb 0.00 in0.0 mm 0.00 in0.0 mm 0.01 in0.3 mm
03:50 PM 44.4°F6.9°C 39.3°F4.1°C 82% 2.0 mph NE3.2 kmh NE 8.0 mph12.9 kmh 30.45 in1031.2 mb 0.00 in0.0 mm 0.00 in0.0 mm 0.01 in0.3 mm
03:45 PM 44.4°F6.9°C 39.3°F4.1°C 82% 4.0 mph ENE6.4 kmh ENE 9.0 mph14.5 kmh 30.45 in1031.2 mb 0.00 in0.0 mm 0.00 in0.0 mm 0.01 in0.3 mm
03:40 PM 44.4°F6.9°C 39.3°F4.1°C 82% 4.0 mph ENE6.4 kmh ENE 10.0 mph16.1 kmh 30.45 in1031.2 mb 0.00 in0.0 mm 0.00 in0.0 mm 0.01 in0.3 mm
03:35 PM 44.6°F7.0°C 39.4°F4.1°C 82% 3.0 mph ENE4.8 kmh ENE 10.0 mph16.1 kmh 30.45 in1031.2 mb 0.00 in0.0 mm 0.00 in0.0 mm 0.01 in0.3 mm
03:30 PM 44.8°F7.1°C 39.6°F4.2°C 82% 3.0 mph ENE4.8 kmh ENE 10.0 mph16.1 kmh 30.45 in1031.2 mb 0.00 in0.0 mm 0.00 in0.0 mm 0.01 in0.3 mm
03:25 PM 44.8°F7.1°C 39.6°F4.2°C 82% 3.0 mph NE4.8 kmh NE 10.0 mph16.1 kmh 30.45 in1031.2 mb 0.00 in0.0 mm 0.00 in0.0 mm 0.01 in0.3 mm
03:20 PM 44.8°F7.1°C 39.3°F4.1°C 81% 3.0 mph ENE4.8 kmh ENE 10.0 mph16.1 kmh 30.45 in1031.2 mb 0.00 in0.0 mm 0.00 in0.0 mm 0.01 in0.3 mm
03:15 PM 44.8°F7.1°C 39.3°F4.1°C 81% 3.0 mph NE4.8 kmh NE 10.0 mph16.1 kmh 30.45 in1031.2 mb 0.00 in0.0 mm 0.00 in0.0 mm 0.01 in0.3 mm
03:10 PM 44.8°F7.1°C 39.3°F4.1°C 81% 3.0 mph ENE4.8 kmh ENE 10.0 mph16.1 kmh 30.45 in1031.2 mb 0.00 in0.0 mm 0.00 in0.0 mm 0.01 in0.3 mm
03:05 PM 44.8°F7.1°C 39.3°F4.1°C 81% 3.0 mph ENE4.8 kmh ENE 10.0 mph16.1 kmh 30.45 in1031.2 mb 0.00 in0.0 mm 0.00 in0.0 mm 0.01 in0.3 mm
03:00 PM 44.8°F7.1°C 39.3°F4.1°C 81% 3.0 mph ENE4.8 kmh ENE 11.0 mph17.7 kmh 30.45 in1031.2 mb 0.00 in0.0 mm 0.00 in0.0 mm 0.01 in0.3 mm
02:55 PM 44.6°F7.0°C 39.1°F3.9°C 81% 4.0 mph ENE6.4 kmh ENE 11.0 mph17.7 kmh 30.45 in1031.2 mb 0.00 in0.0 mm 0.00 in0.0 mm 0.01 in0.3 mm
02:50 PM 44.4°F6.9°C 39.0°F3.9°C 81% 3.0 mph NE4.8 kmh NE 8.0 mph12.9 kmh 30.45 in1031.2 mb 0.00 in0.0 mm 0.00 in0.0 mm 0.01 in0.3 mm
02:45 PM 44.4°F6.9°C 39.3°F4.1°C 82% 2.0 mph NE3.2 kmh NE 8.0 mph12.9 kmh 30.45 in1031.2 mb 0.00 in0.0 mm 0.00 in0.0 mm 0.01 in0.3 mm
02:40 PM 44.2°F6.8°C 39.1°F3.9°C 82% 3.0 mph ENE4.8 kmh ENE 9.0 mph14.5 kmh 30.45 in1031.2 mb 0.00 in0.0 mm 0.00 in0.0 mm 0.01 in0.3 mm
02:35 PM 44.2°F6.8°C 39.1°F3.9°C 82% 4.0 mph ENE6.4 kmh ENE 9.0 mph14.5 kmh 30.45 in1031.2 mb 0.00 in0.0 mm 0.00 in0.0 mm 0.01 in0.3 mm
02:30 PM 44.1°F6.7°C 39.2°F4.0°C 83% 3.0 mph NE4.8 kmh NE 8.0 mph12.9 kmh 30.45 in1031.2 mb 0.00 in0.0 mm 0.00 in0.0 mm 0.01 in0.3 mm
02:25 PM 44.1°F6.7°C 39.2°F4.0°C 83% 2.0 mph ENE3.2 kmh ENE 8.0 mph12.9 kmh 30.45 in1031.2 mb 0.00 in0.0 mm 0.00 in0.0 mm 0.01 in0.3 mm
02:20 PM 44.1°F6.7°C 39.2°F4.0°C 83% 2.0 mph ENE3.2 kmh ENE 7.0 mph11.3 kmh 30.46 in1031.5 mb 0.00 in0.0 mm 0.00 in0.0 mm 0.01 in0.3 mm
02:15 PM 44.1°F6.7°C 39.2°F4.0°C 83% 2.0 mph ENE3.2 kmh ENE 7.0 mph11.3 kmh 30.46 in1031.5 mb 0.00 in0.0 mm 0.00 in0.0 mm 0.01 in0.3 mm
02:10 PM 44.1°F6.7°C 39.2°F4.0°C 83% 2.0 mph ENE3.2 kmh ENE 10.0 mph16.1 kmh 30.46 in1031.5 mb 0.00 in0.0 mm 0.00 in0.0 mm 0.01 in0.3 mm
02:05 PM 43.9°F6.6°C 39.1°F3.9°C 83% 3.0 mph ENE4.8 kmh ENE 10.0 mph16.1 kmh 30.46 in1031.5 mb 0.00 in0.0 mm 0.00 in0.0 mm 0.01 in0.3 mm
02:00 PM 43.7°F6.5°C 38.9°F3.8°C 83% 4.0 mph ENE6.4 kmh ENE 10.0 mph16.1 kmh 30.46 in1031.5 mb 0.00 in0.0 mm 0.00 in0.0 mm 0.01 in0.3 mm
01:55 PM 43.7°F6.5°C 39.2°F4.0°C 84% 3.0 mph ENE4.8 kmh ENE 10.0 mph16.1 kmh 30.46 in1031.5 mb 0.00 in0.0 mm 0.00 in0.0 mm 0.01 in0.3 mm
01:50 PM 43.5°F6.4°C 38.7°F3.7°C 83% 3.0 mph ENE4.8 kmh ENE 9.0 mph14.5 kmh 30.46 in1031.5 mb 0.00 in0.0 mm 0.00 in0.0 mm 0.01 in0.3 mm
01:45 PM 43.5°F6.4°C 38.7°F3.7°C 83% 3.0 mph ENE4.8 kmh ENE 9.0 mph14.5 kmh 30.46 in1031.5 mb 0.00 in0.0 mm 0.00 in0.0 mm 0.01 in0.3 mm
01:40 PM 43.5°F6.4°C 38.7°F3.7°C 83% 4.0 mph NE6.4 kmh NE 11.0 mph17.7 kmh 30.46 in1031.5 mb 0.00 in0.0 mm 0.00 in0.0 mm 0.01 in0.3 mm
01:35 PM 43.5°F6.4°C 38.7°F3.7°C 83% 3.0 mph NE4.8 kmh NE 11.0 mph17.7 kmh 30.46 in1031.5 mb 0.00 in0.0 mm 0.00 in0.0 mm 0.01 in0.3 mm
01:30 PM 43.3°F6.3°C 38.8°F3.8°C 84% 2.0 mph ENE3.2 kmh ENE 9.0 mph14.5 kmh 30.46 in1031.5 mb 0.00 in0.0 mm 0.00 in0.0 mm 0.01 in0.3 mm
01:25 PM 43.2°F6.2°C 38.7°F3.7°C 84% 3.0 mph ENE4.8 kmh ENE 11.0 mph17.7 kmh 30.46 in1031.5 mb 0.00 in0.0 mm 0.00 in0.0 mm 0.01 in0.3 mm
01:20 PM 43.0°F6.1°C 38.5°F3.6°C 84% 3.0 mph ENE4.8 kmh ENE 11.0 mph17.7 kmh 30.46 in1031.5 mb 0.00 in0.0 mm 0.00 in0.0 mm 0.01 in0.3 mm
01:15 PM 43.2°F6.2°C 39.0°F3.9°C 85% 2.0 mph ENE3.2 kmh ENE 7.0 mph11.3 kmh 30.46 in1031.5 mb 0.00 in0.0 mm 0.00 in0.0 mm 0.01 in0.3 mm
01:10 PM 43.0°F6.1°C 38.8°F3.8°C 85% 2.0 mph ENE3.2 kmh ENE 7.0 mph11.3 kmh 30.46 in1031.5 mb 0.00 in0.0 mm 0.00 in0.0 mm 0.01 in0.3 mm
01:05 PM 43.0°F6.1°C 38.8°F3.8°C 85% 2.0 mph ENE3.2 kmh ENE 5.0 mph8.0 kmh 30.46 in1031.5 mb 0.00 in0.0 mm 0.00 in0.0 mm 0.01 in0.3 mm
01:00 PM 42.6°F5.9°C 38.7°F3.7°C 86% 1.0 mph NE1.6 kmh NE 6.0 mph9.7 kmh 30.46 in1031.5 mb 0.00 in0.0 mm 0.00 in0.0 mm 0.01 in0.3 mm
12:55 PM 42.4°F5.8°C 38.5°F3.6°C 86% 2.0 mph NE3.2 kmh NE 8.0 mph12.9 kmh 30.46 in1031.5 mb 0.00 in0.0 mm 0.00 in0.0 mm 0.01 in0.3 mm
12:50 PM 42.4°F5.8°C 38.5°F3.6°C 86% 3.0 mph ENE4.8 kmh ENE 8.0 mph12.9 kmh 30.46 in1031.5 mb 0.00 in0.0 mm 0.00 in0.0 mm 0.01 in0.3 mm
12:45 PM 42.3°F5.7°C 38.7°F3.7°C 87% 2.0 mph ENE3.2 kmh ENE 9.0 mph14.5 kmh 30.46 in1031.5 mb 0.00 in0.0 mm 0.00 in0.0 mm 0.01 in0.3 mm
12:40 PM 42.3°F5.7°C 38.7°F3.7°C 87% 1.0 mph ENE1.6 kmh ENE 9.0 mph14.5 kmh 30.46 in1031.5 mb 0.00 in0.0 mm 0.00 in0.0 mm 0.01 in0.3 mm
12:35 PM 42.1°F5.6°C 38.8°F3.8°C 88% 1.0 mph ENE1.6 kmh ENE 7.0 mph11.3 kmh 30.46 in1031.5 mb 0.00 in0.0 mm 0.00 in0.0 mm 0.01 in0.3 mm
12:30 PM 41.7°F5.4°C 38.4°F3.6°C 88% 1.0 mph ENE1.6 kmh ENE 9.0 mph14.5 kmh 30.46 in1031.5 mb 0.00 in0.0 mm 0.00 in0.0 mm 0.01 in0.3 mm
12:25 PM 41.5°F5.3°C 38.5°F3.6°C 89% 1.0 mph ENE1.6 kmh ENE 9.0 mph14.5 kmh 30.46 in1031.5 mb 0.00 in0.0 mm 0.00 in0.0 mm 0.01 in0.3 mm
12:20 PM 41.5°F5.3°C 38.5°F3.6°C 89% 1.0 mph E1.6 kmh E 9.0 mph14.5 kmh 30.46 in1031.5 mb 0.00 in0.0 mm 0.00 in0.0 mm 0.01 in0.3 mm
12:15 PM 41.4°F5.2°C 38.6°F3.7°C 90% Calm Calm 5.0 mph8.0 kmh 30.46 in1031.5 mb 0.00 in0.0 mm 0.00 in0.0 mm 0.01 in0.3 mm
12:10 PM 41.2°F5.1°C 38.8°F3.8°C 91% 1.0 mph ENE1.6 kmh ENE 6.0 mph9.7 kmh 30.46 in1031.5 mb 0.00 in0.0 mm 0.00 in0.0 mm 0.01 in0.3 mm
12:05 PM 41.0°F5.0°C 38.6°F3.7°C 91% 1.0 mph ENE1.6 kmh ENE 8.0 mph12.9 kmh 30.46 in1031.5 mb 0.00 in0.0 mm 0.00 in0.0 mm 0.01 in0.3 mm
12:00 PM 40.6°F4.8°C 38.5°F3.6°C 92% 1.0 mph ENE1.6 kmh ENE 8.0 mph12.9 kmh 30.47 in1031.8 mb 0.00 in0.0 mm 0.00 in0.0 mm 0.01 in0.3 mm
11:55 AM 40.3°F4.6°C 38.1°F3.4°C 92% 1.0 mph ENE1.6 kmh ENE 8.0 mph12.9 kmh 30.47 in1031.8 mb 0.00 in0.0 mm 0.00 in0.0 mm 0.01 in0.3 mm
11:50 AM 40.1°F4.5°C 38.2°F3.4°C 93% 1.0 mph ENE1.6 kmh ENE 8.0 mph12.9 kmh 30.46 in1031.5 mb 0.00 in0.0 mm 0.00 in0.0 mm 0.01 in0.3 mm
11:45 AM 39.9°F4.4°C 38.1°F3.4°C 93% 1.0 mph ENE1.6 kmh ENE 6.0 mph9.7 kmh 30.47 in1031.8 mb 0.00 in0.0 mm 0.00 in0.0 mm 0.01 in0.3 mm
11:40 AM 39.6°F4.2°C 38.0°F3.3°C 94% 1.0 mph E1.6 kmh E 8.0 mph12.9 kmh 30.47 in1031.8 mb 0.00 in0.0 mm 0.00 in0.0 mm 0.01 in0.3 mm
11:35 AM 39.4°F4.1°C 37.8°F3.2°C 94% Calm Calm 8.0 mph12.9 kmh 30.47 in1031.8 mb 0.00 in0.0 mm 0.00 in0.0 mm 0.01 in0.3 mm
11:30 AM 39.0°F3.9°C 37.4°F3.0°C 94% Calm Calm 3.0 mph4.8 kmh 30.47 in1031.8 mb 0.00 in0.0 mm 0.00 in0.0 mm 0.01 in0.3 mm
11:25 AM 38.8°F3.8°C 37.3°F2.9°C 94% 1.0 mph NE1.6 kmh NE 6.0 mph9.7 kmh 30.47 in1031.8 mb 0.00 in0.0 mm 0.00 in0.0 mm 0.01 in0.3 mm
11:20 AM 38.7°F3.7°C 37.1°F2.8°C 94% 1.0 mph ENE1.6 kmh ENE 6.0 mph9.7 kmh 30.47 in1031.8 mb 0.00 in0.0 mm 0.00 in0.0 mm 0.01 in0.3 mm
11:15 AM 38.5°F3.6°C 36.9°F2.7°C 94% 1.0 mph ENE1.6 kmh ENE 5.0 mph8.0 kmh 30.47 in1031.8 mb 0.00 in0.0 mm 0.00 in0.0 mm 0.01 in0.3 mm
11:10 AM 38.5°F3.6°C 36.9°F2.7°C 94% 1.0 mph ENE1.6 kmh ENE 6.0 mph9.7 kmh 30.47 in1031.8 mb 0.00 in0.0 mm 0.00 in0.0 mm 0.01 in0.3 mm
11:05 AM 38.3°F3.5°C 37.0°F2.8°C 95% 1.0 mph E1.6 kmh E 6.0 mph9.7 kmh 30.47 in1031.8 mb 0.00 in0.0 mm 0.00 in0.0 mm 0.01 in0.3 mm
11:00 AM 38.1°F3.4°C 36.8°F2.7°C 95% 1.0 mph E1.6 kmh E 5.0 mph8.0 kmh 30.47 in1031.8 mb 0.00 in0.0 mm 0.00 in0.0 mm 0.01 in0.3 mm
10:55 AM 38.1°F3.4°C 36.8°F2.7°C 95% 1.0 mph E1.6 kmh E 5.0 mph8.0 kmh 30.47 in1031.8 mb 0.00 in0.0 mm 0.00 in0.0 mm 0.01 in0.3 mm
10:50 AM 37.9°F3.3°C 36.6°F2.6°C 95% 1.0 mph ESE1.6 kmh ESE 7.0 mph11.3 kmh 30.46 in1031.5 mb 0.00 in0.0 mm 0.00 in0.0 mm 0.01 in0.3 mm
10:45 AM 37.8°F3.2°C 36.5°F2.5°C 95% 1.0 mph E1.6 kmh E 7.0 mph11.3 kmh 30.46 in1031.5 mb 0.00 in0.0 mm 0.00 in0.0 mm 0.01 in0.3 mm
10:40 AM 37.6°F3.1°C 36.3°F2.4°C 95% 1.0 mph E1.6 kmh E 7.0 mph11.3 kmh 30.46 in1031.5 mb 0.00 in0.0 mm 0.00 in0.0 mm 0.01 in0.3 mm
10:35 AM 37.6°F3.1°C 36.3°F2.4°C 95% 1.0 mph ENE1.6 kmh ENE 7.0 mph11.3 kmh 30.46 in1031.5 mb 0.00 in0.0 mm 0.00 in0.0 mm 0.01 in0.3 mm
10:30 AM 37.2°F2.9°C 35.9°F2.2°C 95% Calm Calm 5.0 mph8.0 kmh 30.46 in1031.5 mb 0.00 in0.0 mm 0.00 in0.0 mm 0.01 in0.3 mm
10:25 AM 37.0°F2.8°C 35.7°F2.1°C 95% 1.0 mph ENE1.6 kmh ENE 5.0 mph8.0 kmh 30.46 in1031.5 mb 0.00 in0.0 mm 0.00 in0.0 mm 0.01 in0.3 mm
10:20 AM 37.0°F2.8°C 35.7°F2.1°C 95% Calm Calm 4.0 mph6.4 kmh 30.46 in1031.5 mb 0.00 in0.0 mm 0.00 in0.0 mm 0.01 in0.3 mm
10:15 AM 36.9°F2.7°C 35.6°F2.0°C 95% Calm Calm 3.0 mph4.8 kmh 30.46 in1031.5 mb 0.00 in0.0 mm 0.00 in0.0 mm 0.01 in0.3 mm
10:10 AM 36.7°F2.6°C 35.4°F1.9°C 95% Calm Calm 4.0 mph6.4 kmh 30.46 in1031.5 mb 0.00 in0.0 mm 0.00 in0.0 mm 0.01 in0.3 mm
10:05 AM 36.7°F2.6°C 35.4°F1.9°C 95% Calm Calm 4.0 mph6.4 kmh 30.45 in1031.2 mb 0.00 in0.0 mm 0.00 in0.0 mm 0.01 in0.3 mm
10:00 AM 36.3°F2.4°C 35.0°F1.7°C 95% Calm Calm 5.0 mph8.0 kmh 30.45 in1031.2 mb 0.00 in0.0 mm 0.00 in0.0 mm 0.01 in0.3 mm
09:55 AM 36.3°F2.4°C 35.0°F1.7°C 95% 1.0 mph ENE1.6 kmh ENE 8.0 mph12.9 kmh 30.45 in1031.2 mb 0.00 in0.0 mm 0.00 in0.0 mm 0.01 in0.3 mm
09:50 AM 36.1°F2.3°C 34.8°F1.6°C 95% 2.0 mph ENE3.2 kmh ENE 8.0 mph12.9 kmh 30.45 in1031.2 mb 0.00 in0.0 mm 0.00 in0.0 mm 0.01 in0.3 mm
09:45 AM 36.1°F2.3°C 34.8°F1.6°C 95% 1.0 mph ENE1.6 kmh ENE 5.0 mph8.0 kmh 30.45 in1031.2 mb 0.00 in0.0 mm 0.00 in0.0 mm 0.01 in0.3 mm
09:40 AM 36.1°F2.3°C 34.8°F1.6°C 95% 1.0 mph ENE1.6 kmh ENE 5.0 mph8.0 kmh 30.45 in1031.2 mb 0.00 in0.0 mm 0.00 in0.0 mm 0.01 in0.3 mm
09:35 AM 36.0°F2.2°C 34.7°F1.5°C 95% 1.0 mph ENE1.6 kmh ENE 5.0 mph8.0 kmh 30.45 in1031.2 mb 0.00 in0.0 mm 0.00 in0.0 mm 0.01 in0.3 mm
09:30 AM 36.0°F2.2°C 34.7°F1.5°C 95% 1.0 mph ENE1.6 kmh ENE 7.0 mph11.3 kmh 30.45 in1031.2 mb 0.00 in0.0 mm 0.00 in0.0 mm 0.01 in0.3 mm
09:25 AM 35.8°F2.1°C 34.5°F1.4°C 95% 2.0 mph ENE3.2 kmh ENE 7.0 mph11.3 kmh 30.45 in1031.2 mb 0.00 in0.0 mm 0.00 in0.0 mm 0.01 in0.3 mm
09:20 AM 35.8°F2.1°C 34.5°F1.4°C 95% 1.0 mph ENE1.6 kmh ENE 7.0 mph11.3 kmh 30.45 in1031.2 mb 0.00 in0.0 mm 0.00 in0.0 mm 0.01 in0.3 mm
09:15 AM 35.6°F2.0°C 34.3°F1.3°C 95% 1.0 mph ENE1.6 kmh ENE 5.0 mph8.0 kmh 30.45 in1031.2 mb 0.00 in0.0 mm 0.00 in0.0 mm 0.01 in0.3 mm
09:10 AM 35.6°F2.0°C 34.3°F1.3°C 95% 1.0 mph E1.6 kmh E 5.0 mph8.0 kmh 30.45 in1031.2 mb 0.00 in0.0 mm 0.00 in0.0 mm 0.01 in0.3 mm
09:05 AM 35.6°F2.0°C 34.3°F1.3°C 95% 1.0 mph ENE1.6 kmh ENE 5.0 mph8.0 kmh 30.45 in1031.2 mb 0.00 in0.0 mm 0.00 in0.0 mm 0.01 in0.3 mm
09:00 AM 35.4°F1.9°C 34.1°F1.2°C 95% 2.0 mph NE3.2 kmh NE 7.0 mph11.3 kmh 30.45 in1031.2 mb 0.00 in0.0 mm 0.00 in0.0 mm 0.01 in0.3 mm
08:55 AM 35.4°F1.9°C 34.1°F1.2°C 95% 1.0 mph NE1.6 kmh NE 7.0 mph11.3 kmh 30.45 in1031.2 mb 0.00 in0.0 mm 0.00 in0.0 mm 0.01 in0.3 mm
08:50 AM 35.4°F1.9°C 34.1°F1.2°C 95% 2.0 mph ENE3.2 kmh ENE 8.0 mph12.9 kmh 30.44 in1030.8 mb 0.00 in0.0 mm 0.00 in0.0 mm 0.01 in0.3 mm
08:45 AM 35.4°F1.9°C 34.1°F1.2°C 95% 1.0 mph ENE1.6 kmh ENE 8.0 mph12.9 kmh 30.44 in1030.8 mb 0.00 in0.0 mm 0.00 in0.0 mm 0.01 in0.3 mm
08:40 AM 35.4°F1.9°C 34.1°F1.2°C 95% 1.0 mph ENE1.6 kmh ENE 5.0 mph8.0 kmh 30.44 in1030.8 mb 0.00 in0.0 mm 0.00 in0.0 mm 0.01 in0.3 mm
08:35 AM 35.4°F1.9°C 33.9°F1.1°C 94% 1.0 mph ENE1.6 kmh ENE 7.0 mph11.3 kmh 30.44 in1030.8 mb 0.00 in0.0 mm 0.00 in0.0 mm 0.01 in0.3 mm
08:30 AM 35.4°F1.9°C 33.9°F1.1°C 94% 2.0 mph ENE3.2 kmh ENE 8.0 mph12.9 kmh 30.44 in1030.8 mb 0.00 in0.0 mm 0.00 in0.0 mm 0.01 in0.3 mm
08:25 AM 35.4°F1.9°C 33.9°F1.1°C 94% 2.0 mph ENE3.2 kmh ENE 8.0 mph12.9 kmh 30.44 in1030.8 mb 0.00 in0.0 mm 0.00 in0.0 mm 0.01 in0.3 mm
08:20 AM 35.4°F1.9°C 33.9°F1.1°C 94% 2.0 mph ENE3.2 kmh ENE 6.0 mph9.7 kmh 30.44 in1030.8 mb 0.00 in0.0 mm 0.00 in0.0 mm 0.01 in0.3 mm
08:15 AM 35.4°F1.9°C 33.9°F1.1°C 94% 1.0 mph ENE1.6 kmh ENE 5.0 mph8.0 kmh 30.44 in1030.8 mb 0.00 in0.0 mm 0.00 in0.0 mm 0.01 in0.3 mm
08:10 AM 35.4°F1.9°C 34.1°F1.2°C 95% 1.0 mph ENE1.6 kmh ENE 5.0 mph8.0 kmh 30.44 in1030.8 mb 0.00 in0.0 mm 0.00 in0.0 mm 0.01 in0.3 mm
08:05 AM 35.4°F1.9°C 34.1°F1.2°C 95% Calm Calm 3.0 mph4.8 kmh 30.44 in1030.8 mb 0.00 in0.0 mm 0.00 in0.0 mm 0.01 in0.3 mm
08:00 AM 35.4°F1.9°C 34.1°F1.2°C 95% Calm Calm 3.0 mph4.8 kmh 30.43 in1030.5 mb 0.00 in0.0 mm 0.00 in0.0 mm 0.01 in0.3 mm
07:55 AM 35.6°F2.0°C 34.0°F1.1°C 94% Calm Calm 2.0 mph3.2 kmh 30.43 in1030.5 mb 0.00 in0.0 mm 0.00 in0.0 mm 0.01 in0.3 mm
07:50 AM 35.6°F2.0°C 34.0°F1.1°C 94% Calm Calm 5.0 mph8.0 kmh 30.43 in1030.5 mb 0.00 in0.0 mm 0.00 in0.0 mm 0.01 in0.3 mm
07:45 AM 35.8°F2.1°C 34.2°F1.2°C 94% Calm Calm 5.0 mph8.0 kmh 30.43 in1030.5 mb 0.00 in0.0 mm 0.00 in0.0 mm 0.01 in0.3 mm
07:40 AM 35.8°F2.1°C 34.2°F1.2°C 94% Calm Calm -- 30.43 in1030.5 mb 0.00 in0.0 mm 0.00 in0.0 mm 0.01 in0.3 mm
07:35 AM 35.8°F2.1°C 34.2°F1.2°C 94% Calm Calm 2.0 mph3.2 kmh 30.43 in1030.5 mb 0.00 in0.0 mm 0.00 in0.0 mm 0.01 in0.3 mm
07:30 AM 36.0°F2.2°C 34.4°F1.3°C 94% Calm Calm 2.0 mph3.2 kmh 30.43 in1030.5 mb 0.00 in0.0 mm 0.00 in0.0 mm 0.01 in0.3 mm
07:25 AM 36.0°F2.2°C 34.4°F1.3°C 94% Calm Calm 5.0 mph8.0 kmh 30.43 in1030.5 mb 0.00 in0.0 mm 0.00 in0.0 mm 0.01 in0.3 mm
07:20 AM 36.0°F2.2°C 34.4°F1.3°C 94% 1.0 mph ENE1.6 kmh ENE 5.0 mph8.0 kmh 30.43 in1030.5 mb 0.00 in0.0 mm 0.00 in0.0 mm 0.01 in0.3 mm
07:15 AM 36.1°F2.3°C 34.6°F1.4°C 94% 1.0 mph ENE1.6 kmh ENE 4.0 mph6.4 kmh 30.43 in1030.5 mb 0.00 in0.0 mm 0.00 in0.0 mm 0.01 in0.3 mm
07:10 AM 36.1°F2.3°C 34.8°F1.6°C 95% 1.0 mph ENE1.6 kmh ENE 7.0 mph11.3 kmh 30.43 in1030.5 mb 0.00 in0.0 mm 0.00 in0.0 mm 0.01 in0.3 mm
06:45 AM 36.3°F2.4°C 35.0°F1.7°C 95% 1.0 mph ENE1.6 kmh ENE 9.0 mph14.5 kmh 30.42 in1030.1 mb 0.00 in0.0 mm 0.00 in0.0 mm 0.01 in0.3 mm
06:40 AM 36.3°F2.4°C 34.8°F1.6°C 94% 2.0 mph ENE3.2 kmh ENE 9.0 mph14.5 kmh 30.42 in1030.1 mb 0.00 in0.0 mm 0.00 in0.0 mm 0.01 in0.3 mm
06:35 AM 36.3°F2.4°C 34.8°F1.6°C 94% 2.0 mph ENE3.2 kmh ENE 6.0 mph9.7 kmh 30.42 in1030.1 mb 0.00 in0.0 mm 0.00 in0.0 mm 0.01 in0.3 mm
06:30 AM 36.3°F2.4°C 34.8°F1.6°C 94% 2.0 mph ENE3.2 kmh ENE 7.0 mph11.3 kmh 30.42 in1030.1 mb 0.00 in0.0 mm 0.00 in0.0 mm 0.01 in0.3 mm
06:25 AM 36.3°F2.4°C 34.8°F1.6°C 94% 2.0 mph ENE3.2 kmh ENE 7.0 mph11.3 kmh 30.42 in1030.1 mb 0.00 in0.0 mm 0.00 in0.0 mm 0.01 in0.3 mm
06:20 AM 36.5°F2.5°C 34.9°F1.6°C 94% 1.0 mph ENE1.6 kmh ENE 6.0 mph9.7 kmh 30.42 in1030.1 mb 0.00 in0.0 mm 0.00 in0.0 mm 0.01 in0.3 mm
06:15 AM 36.5°F2.5°C 34.9°F1.6°C 94% 2.0 mph ENE3.2 kmh ENE 7.0 mph11.3 kmh 30.43 in1030.5 mb 0.00 in0.0 mm 0.00 in0.0 mm 0.01 in0.3 mm
06:10 AM 36.5°F2.5°C 34.9°F1.6°C 94% 1.0 mph ENE1.6 kmh ENE 7.0 mph11.3 kmh 30.42 in1030.1 mb 0.00 in0.0 mm 0.00 in0.0 mm 0.01 in0.3 mm
06:05 AM 36.7°F2.6°C 35.4°F1.9°C 95% 2.0 mph ENE3.2 kmh ENE 8.0 mph12.9 kmh 30.43 in1030.5 mb 0.00 in0.0 mm 0.00 in0.0 mm 0.01 in0.3 mm
06:00 AM 36.7°F2.6°C 35.1°F1.7°C 94% 2.0 mph ENE3.2 kmh ENE 8.0 mph12.9 kmh 30.43 in1030.5 mb 0.00 in0.0 mm 0.00 in0.0 mm 0.01 in0.3 mm
05:55 AM 36.7°F2.6°C 35.4°F1.9°C 95% 2.0 mph ENE3.2 kmh ENE 7.0 mph11.3 kmh 30.43 in1030.5 mb 0.00 in0.0 mm 0.00 in0.0 mm 0.01 in0.3 mm
05:50 AM 36.7°F2.6°C 35.1°F1.7°C 94% 2.0 mph ENE3.2 kmh ENE 7.0 mph11.3 kmh 30.43 in1030.5 mb 0.00 in0.0 mm 0.00 in0.0 mm 0.01 in0.3 mm
05:45 AM 36.7°F2.6°C 35.1°F1.7°C 94% 2.0 mph ENE3.2 kmh ENE 7.0 mph11.3 kmh 30.42 in1030.1 mb 0.00 in0.0 mm 0.00 in0.0 mm 0.01 in0.3 mm
05:40 AM 36.7°F2.6°C 35.4°F1.9°C 95% 2.0 mph ENE3.2 kmh ENE 7.0 mph11.3 kmh 30.43 in1030.5 mb 0.00 in0.0 mm 0.00 in0.0 mm 0.01 in0.3 mm
05:35 AM 36.7°F2.6°C 35.4°F1.9°C 95% 1.0 mph ENE1.6 kmh ENE 5.0 mph8.0 kmh 30.43 in1030.5 mb 0.00 in0.0 mm 0.00 in0.0 mm 0.01 in0.3 mm
05:30 AM 36.7°F2.6°C 35.4°F1.9°C 95% Calm Calm 3.0 mph4.8 kmh 30.42 in1030.1 mb 0.00 in0.0 mm 0.00 in0.0 mm 0.01 in0.3 mm
05:25 AM 36.9°F2.7°C 35.6°F2.0°C 95% 1.0 mph ENE1.6 kmh ENE 8.0 mph12.9 kmh 30.43 in1030.5 mb 0.00 in0.0 mm 0.00 in0.0 mm 0.01 in0.3 mm
05:20 AM 36.9°F2.7°C 35.6°F2.0°C 95% 1.0 mph ENE1.6 kmh ENE 8.0 mph12.9 kmh 30.42 in1030.1 mb 0.00 in0.0 mm 0.00 in0.0 mm 0.01 in0.3 mm
05:15 AM 36.9°F2.7°C 35.6°F2.0°C 95% 1.0 mph ENE1.6 kmh ENE 5.0 mph8.0 kmh 30.42 in1030.1 mb 0.00 in0.0 mm 0.00 in0.0 mm 0.01 in0.3 mm
05:10 AM 36.9°F2.7°C 35.3°F1.8°C 94% 2.0 mph ENE3.2 kmh ENE 7.0 mph11.3 kmh 30.42 in1030.1 mb 0.00 in0.0 mm 0.00 in0.0 mm 0.01 in0.3 mm
05:05 AM 37.0°F2.8°C 35.5°F1.9°C 94% 1.0 mph ENE1.6 kmh ENE 7.0 mph11.3 kmh 30.42 in1030.1 mb 0.00 in0.0 mm 0.00 in0.0 mm 0.01 in0.3 mm
05:00 AM 37.0°F2.8°C 35.5°F1.9°C 94% 1.0 mph ENE1.6 kmh ENE 5.0 mph8.0 kmh 30.42 in1030.1 mb 0.00 in0.0 mm 0.00 in0.0 mm 0.01 in0.3 mm
04:55 AM 37.0°F2.8°C 35.5°F1.9°C 94% 1.0 mph NE1.6 kmh NE 5.0 mph8.0 kmh 30.42 in1030.1 mb 0.00 in0.0 mm 0.00 in0.0 mm 0.01 in0.3 mm
04:50 AM 37.0°F2.8°C 35.5°F1.9°C 94% 1.0 mph ENE1.6 kmh ENE 5.0 mph8.0 kmh 30.42 in1030.1 mb 0.00 in0.0 mm 0.00 in0.0 mm 0.01 in0.3 mm
04:45 AM 37.0°F2.8°C 35.5°F1.9°C 94% 1.0 mph ENE1.6 kmh ENE 5.0 mph8.0 kmh 30.42 in1030.1 mb 0.00 in0.0 mm 0.00 in0.0 mm 0.01 in0.3 mm
04:40 AM 37.2°F2.9°C 35.9°F2.2°C 95% 1.0 mph ENE1.6 kmh ENE 4.0 mph6.4 kmh 30.42 in1030.1 mb 0.00 in0.0 mm 0.00 in0.0 mm 0.01 in0.3 mm
04:35 AM 37.2°F2.9°C 35.9°F2.2°C 95% 1.0 mph NE1.6 kmh NE 6.0 mph9.7 kmh 30.42 in1030.1 mb 0.00 in0.0 mm 0.00 in0.0 mm 0.01 in0.3 mm
04:30 AM 37.2°F2.9°C 35.9°F2.2°C 95% 1.0 mph NE1.6 kmh NE 6.0 mph9.7 kmh 30.42 in1030.1 mb 0.00 in0.0 mm 0.00 in0.0 mm 0.01 in0.3 mm
04:25 AM 37.4°F3.0°C 36.1°F2.3°C 95% Calm Calm 3.0 mph4.8 kmh 30.42 in1030.1 mb 0.00 in0.0 mm 0.00 in0.0 mm 0.01 in0.3 mm
04:20 AM 37.4°F3.0°C 36.1°F2.3°C 95% Calm Calm 2.0 mph3.2 kmh 30.42 in1030.1 mb 0.00 in0.0 mm 0.00 in0.0 mm 0.01 in0.3 mm
04:15 AM 37.6°F3.1°C 36.3°F2.4°C 95% Calm Calm 2.0 mph3.2 kmh 30.42 in1030.1 mb 0.00 in0.0 mm 0.00 in0.0 mm 0.01 in0.3 mm
04:10 AM 37.6°F3.1°C 36.0°F2.2°C 94% Calm Calm 2.0 mph3.2 kmh 30.42 in1030.1 mb 0.00 in0.0 mm 0.00 in0.0 mm 0.01 in0.3 mm
04:05 AM 37.6°F3.1°C 36.0°F2.2°C 94% Calm Calm 2.0 mph3.2 kmh 30.42 in1030.1 mb 0.00 in0.0 mm 0.00 in0.0 mm 0.01 in0.3 mm
04:00 AM 37.8°F3.2°C 36.2°F2.3°C 94% Calm Calm 2.0 mph3.2 kmh 30.41 in1029.8 mb 0.00 in0.0 mm 0.00 in0.0 mm 0.01 in0.3 mm
03:55 AM 37.8°F3.2°C 36.2°F2.3°C 94% Calm Calm 2.0 mph3.2 kmh 30.41 in1029.8 mb 0.00 in0.0 mm 0.00 in0.0 mm 0.01 in0.3 mm
03:50 AM 37.8°F3.2°C 36.5°F2.5°C 95% Calm Calm 2.0 mph3.2 kmh 30.41 in1029.8 mb 0.01 in0.3 mm 0.00 in0.0 mm 0.01 in0.3 mm
03:45 AM 37.9°F3.3°C 36.6°F2.6°C 95% Calm Calm 5.0 mph8.0 kmh 30.42 in1030.1 mb 0.01 in0.3 mm 0.00 in0.0 mm 0.01 in0.3 mm
03:40 AM 37.9°F3.3°C 36.6°F2.6°C 95% 1.0 mph ENE1.6 kmh ENE 5.0 mph8.0 kmh 30.42 in1030.1 mb 0.01 in0.3 mm 0.00 in0.0 mm 0.01 in0.3 mm
03:35 AM 37.9°F3.3°C 36.6°F2.6°C 95% 1.0 mph ENE1.6 kmh ENE 5.0 mph8.0 kmh 30.42 in1030.1 mb 0.01 in0.3 mm 0.00 in0.0 mm 0.01 in0.3 mm
03:30 AM 38.1°F3.4°C 36.8°F2.7°C 95% 1.0 mph ENE1.6 kmh ENE 4.0 mph6.4 kmh 30.42 in1030.1 mb 0.01 in0.3 mm 0.00 in0.0 mm 0.01 in0.3 mm
03:25 AM 38.1°F3.4°C 36.8°F2.7°C 95% Calm Calm 4.0 mph6.4 kmh 30.42 in1030.1 mb 0.01 in0.3 mm 0.00 in0.0 mm 0.01 in0.3 mm
03:20 AM 38.1°F3.4°C 36.8°F2.7°C 95% Calm Calm 3.0 mph4.8 kmh 30.42 in1030.1 mb 0.01 in0.3 mm 0.00 in0.0 mm 0.01 in0.3 mm
03:15 AM 38.1°F3.4°C 36.5°F2.5°C 94% Calm Calm 4.0 mph6.4 kmh 30.41 in1029.8 mb 0.01 in0.3 mm 0.00 in0.0 mm 0.01 in0.3 mm
03:10 AM 38.1°F3.4°C 36.5°F2.5°C 94% Calm Calm 4.0 mph6.4 kmh 30.41 in1029.8 mb 0.01 in0.3 mm 0.00 in0.0 mm 0.01 in0.3 mm
03:05 AM 38.3°F3.5°C 36.7°F2.6°C 94% Calm Calm 4.0 mph6.4 kmh 30.41 in1029.8 mb 0.01 in0.3 mm 0.00 in0.0 mm 0.01 in0.3 mm
03:00 AM 38.3°F3.5°C 36.7°F2.6°C 94% Calm Calm 4.0 mph6.4 kmh 30.41 in1029.8 mb 0.01 in0.3 mm 0.00 in0.0 mm 0.01 in0.3 mm
02:55 AM 38.5°F3.6°C 36.9°F2.7°C 94% Calm Calm 4.0 mph6.4 kmh 30.41 in1029.8 mb 0.01 in0.3 mm 0.12 in3.0 mm 0.01 in0.3 mm
02:50 AM 38.5°F3.6°C 36.9°F2.7°C 94% Calm Calm -- 30.41 in1029.8 mb 0.00 in0.0 mm 0.00 in0.0 mm 0.00 in0.0 mm
02:45 AM 38.5°F3.6°C 36.9°F2.7°C 94% Calm Calm -- 30.41 in1029.8 mb 0.00 in0.0 mm 0.00 in0.0 mm 0.00 in0.0 mm
02:40 AM 38.5°F3.6°C 37.2°F2.9°C 95% Calm Calm -- 30.41 in1029.8 mb 0.00 in0.0 mm 0.00 in0.0 mm 0.00 in0.0 mm
02:35 AM 38.7°F3.7°C 37.4°F3.0°C 95% Calm Calm -- 30.41 in1029.8 mb 0.00 in0.0 mm 0.00 in0.0 mm 0.00 in0.0 mm
02:30 AM 38.7°F3.7°C 37.4°F3.0°C 95% Calm Calm -- 30.41 in1029.8 mb 0.00 in0.0 mm 0.00 in0.0 mm 0.00 in0.0 mm
02:25 AM 38.7°F3.7°C 37.4°F3.0°C 95% Calm Calm -- 30.41 in1029.8 mb 0.00 in0.0 mm 0.00 in0.0 mm 0.00 in0.0 mm
02:20 AM 38.7°F3.7°C 37.4°F3.0°C 95% Calm Calm 2.0 mph3.2 kmh 30.41 in1029.8 mb 0.00 in0.0 mm 0.00 in0.0 mm 0.00 in0.0 mm
02:15 AM 38.8°F3.8°C 37.5°F3.1°C 95% Calm Calm 2.0 mph3.2 kmh 30.41 in1029.8 mb 0.00 in0.0 mm 0.00 in0.0 mm 0.00 in0.0 mm
02:10 AM 38.8°F3.8°C 37.3°F2.9°C 94% Calm Calm 1.0 mph1.6 kmh 30.41 in1029.8 mb 0.00 in0.0 mm 0.00 in0.0 mm 0.00 in0.0 mm
02:05 AM 38.8°F3.8°C 37.3°F2.9°C 94% Calm Calm 4.0 mph6.4 kmh 30.41 in1029.8 mb 0.00 in0.0 mm 0.00 in0.0 mm 0.00 in0.0 mm
02:00 AM 38.8°F3.8°C 37.5°F3.1°C 95% Calm Calm 5.0 mph8.0 kmh 30.41 in1029.8 mb 0.00 in0.0 mm 0.00 in0.0 mm 0.00 in0.0 mm
01:55 AM 39.0°F3.9°C 37.7°F3.2°C 95% Calm Calm 5.0 mph8.0 kmh 30.41 in1029.8 mb 0.00 in0.0 mm 0.00 in0.0 mm 0.00 in0.0 mm
01:50 AM 39.0°F3.9°C 37.7°F3.2°C 95% Calm Calm 4.0 mph6.4 kmh 30.41 in1029.8 mb 0.00 in0.0 mm 0.00 in0.0 mm 0.00 in0.0 mm
01:45 AM 39.0°F3.9°C 37.4°F3.0°C 94% Calm Calm 4.0 mph6.4 kmh 30.41 in1029.8 mb 0.00 in0.0 mm 0.00 in0.0 mm 0.00 in0.0 mm
01:40 AM 39.0°F3.9°C 37.7°F3.2°C 95% Calm Calm 2.0 mph3.2 kmh 30.40 in1029.5 mb 0.00 in0.0 mm 0.00 in0.0 mm 0.00 in0.0 mm
01:35 AM 39.2°F4.0°C 37.9°F3.3°C 95% Calm Calm 3.0 mph4.8 kmh 30.40 in1029.5 mb 0.00 in0.0 mm 0.00 in0.0 mm 0.00 in0.0 mm
01:30 AM 39.2°F4.0°C 37.9°F3.3°C 95% Calm Calm 3.0 mph4.8 kmh 30.40 in1029.5 mb 0.00 in0.0 mm 0.00 in0.0 mm 0.00 in0.0 mm
01:25 AM 39.2°F4.0°C 37.9°F3.3°C 95% Calm Calm 2.0 mph3.2 kmh 30.40 in1029.5 mb 0.00 in0.0 mm 0.00 in0.0 mm 0.00 in0.0 mm
01:20 AM 39.4°F4.1°C 38.1°F3.4°C 95% Calm Calm 5.0 mph8.0 kmh 30.40 in1029.5 mb 0.00 in0.0 mm 0.00 in0.0 mm 0.00 in0.0 mm
01:15 AM 39.4°F4.1°C 38.1°F3.4°C 95% Calm Calm 5.0 mph8.0 kmh 30.40 in1029.5 mb 0.00 in0.0 mm 0.00 in0.0 mm 0.00 in0.0 mm
01:10 AM 39.4°F4.1°C 38.1°F3.4°C 95% Calm Calm 3.0 mph4.8 kmh 30.40 in1029.5 mb 0.00 in0.0 mm 0.00 in0.0 mm 0.00 in0.0 mm
01:05 AM 39.4°F4.1°C 38.1°F3.4°C 95% Calm Calm -- 30.40 in1029.5 mb 0.00 in0.0 mm 0.00 in0.0 mm 0.00 in0.0 mm
01:00 AM 39.4°F4.1°C 37.8°F3.2°C 94% Calm Calm -- 30.40 in1029.5 mb 0.00 in0.0 mm 0.00 in0.0 mm 0.00 in0.0 mm
12:55 AM 39.4°F4.1°C 37.8°F3.2°C 94% Calm Calm -- 30.40 in1029.5 mb 0.00 in0.0 mm 0.00 in0.0 mm 0.00 in0.0 mm
12:50 AM 39.4°F4.1°C 37.8°F3.2°C 94% Calm Calm -- 30.40 in1029.5 mb 0.00 in0.0 mm 0.00 in0.0 mm 0.00 in0.0 mm
12:45 AM 39.6°F4.2°C 38.0°F3.3°C 94% Calm Calm -- 30.40 in1029.5 mb 0.00 in0.0 mm 0.00 in0.0 mm 0.00 in0.0 mm
12:40 AM 39.6°F4.2°C 38.0°F3.3°C 94% Calm Calm -- 30.39 in1029.1 mb 0.00 in0.0 mm 0.00 in0.0 mm 0.00 in0.0 mm
12:35 AM 39.6°F4.2°C 38.0°F3.3°C 94% Calm Calm -- 30.39 in1029.1 mb 0.00 in0.0 mm 0.00 in0.0 mm 0.00 in0.0 mm
12:30 AM 39.6°F4.2°C 38.2°F3.4°C 95% Calm Calm -- 30.39 in1029.1 mb 0.00 in0.0 mm 0.00 in0.0 mm 0.00 in0.0 mm
12:25 AM 39.7°F4.3°C 38.4°F3.6°C 95% Calm Calm -- 30.40 in1029.5 mb 0.00 in0.0 mm 0.00 in0.0 mm 0.00 in0.0 mm
12:20 AM 39.7°F4.3°C 38.4°F3.6°C 95% Calm Calm -- 30.40 in1029.5 mb 0.00 in0.0 mm 0.00 in0.0 mm 0.00 in0.0 mm
12:15 AM 39.7°F4.3°C 38.4°F3.6°C 95% Calm Calm -- 30.40 in1029.5 mb 0.00 in0.0 mm 0.00 in0.0 mm 0.00 in0.0 mm
12:10 AM 39.9°F4.4°C 38.6°F3.7°C 95% Calm Calm -- 30.39 in1029.1 mb 0.00 in0.0 mm 0.00 in0.0 mm 0.00 in0.0 mm
12:05 AM 39.9°F4.4°C 38.6°F3.7°C 95% Calm Calm -- 30.39 in1029.1 mb 0.00 in0.0 mm 0.00 in0.0 mm 0.00 in0.0 mm
12:00 AM 39.9°F4.4°C 38.3°F3.5°C 94% Calm Calm -- 30.39 in1029.1 mb 0.00 in0.0 mm 0.00 in0.0 mm 0.00 in0.0 mm